Time;durP1;ratioP1;P1;durP2;ratioP2;P2;SDS_P1;SDS_P2;PMS_P1;PMS_P2;Temp;Humidity;BMP_temperature;BMP_pressure;BME280_temperature;BME280_humidity;BME280_pressure;Samples;Min_cycle;Max_cycle;Signal;HPM_P1;HPM_P2
2024/04/12 00:01:47;;;;;;;6.63;5.32;;;17.50;75.40;;;;;;5448004;26;20067;-34
2024/04/12 00:04:20;;;;;;;6.63;5.55;;;17.60;75.40;;;;;;5468727;26;20345;-35
2024/04/12 00:06:50;;;;;;;7.57;5.85;;;17.50;75.40;;;;;;5460316;26;20075;-32
2024/04/12 00:09:18;;;;;;;6.57;5.63;;;17.50;75.40;;;;;;5474650;26;20010;-38
2024/04/12 00:11:54;;;;;;;6.47;5.80;;;17.60;75.50;;;;;;5475996;26;19995;-33
2024/04/12 00:14:22;;;;;;;6.20;5.50;;;17.50;75.50;;;;;;5478737;26;19998;-31
2024/04/12 00:16:52;;;;;;;7.15;5.57;;;17.50;75.40;;;;;;5491922;26;19994;-35
2024/04/12 00:19:19;;;;;;;6.85;5.68;;;17.50;75.50;;;;;;5466226;26;19995;-31
2024/04/12 00:21:52;;;;;;;6.75;5.80;;;17.50;75.50;;;;;;5458745;26;20010;-37
2024/04/12 00:24:23;;;;;;;6.60;5.90;;;17.60;75.60;;;;;;5453966;26;20106;-36
2024/04/12 00:26:49;;;;;;;6.30;5.43;;;17.50;75.40;;;;;;5464210;26;20005;-35
2024/04/12 00:29:30;;;;;;;6.60;5.68;;;17.50;75.40;;;;;;5475169;26;19995;-36
2024/04/12 00:32:13;;;;;;;6.78;5.40;;;17.50;75.50;;;;;;5476839;26;19990;-31
2024/04/12 00:34:41;;;;;;;5.75;4.90;;;17.50;75.40;;;;;;5476545;26;19999;-35
2024/04/12 00:37:15;;;;;;;6.70;5.40;;;17.50;75.50;;;;;;5467345;26;19995;-34
2024/04/12 00:39:47;;;;;;;7.60;5.53;;;17.50;75.50;;;;;;5468656;26;19998;-34
2024/04/12 00:42:15;;;;;;;6.30;5.20;;;17.50;75.50;;;;;;5481039;26;19998;-33
2024/04/12 00:44:42;;;;;;;7.03;5.95;;;17.50;75.40;;;;;;5470371;26;20064;-33
2024/04/12 00:47:15;;;;;;;6.90;5.32;;;17.50;75.50;;;;;;5464965;26;19995;-38
2024/04/12 00:49:49;;;;;;;6.50;5.43;;;17.50;75.50;;;;;;5461409;26;19995;-32
2024/04/12 00:52:22;;;;;;;6.63;5.63;;;17.50;75.50;;;;;;5463820;26;20005;-32
2024/04/12 00:55:03;;;;;;;7.47;6.05;;;17.50;75.60;;;;;;5470642;26;19995;-34
2024/04/12 00:57:36;;;;;;;6.53;5.65;;;17.50;75.50;;;;;;5465881;26;19998;-30
2024/04/12 01:00:13;;;;;;;6.60;5.65;;;17.50;75.50;;;;;;5468096;26;20454;-36
2024/04/12 01:02:40;;;;;;;6.85;5.40;;;17.50;75.50;;;;;;5467776;26;19995;-34
2024/04/12 01:05:13;;;;;;;6.78;5.90;;;17.50;75.80;;;;;;5466194;26;20006;-35
2024/04/12 01:07:48;;;;;;;7.32;5.95;;;17.50;75.60;;;;;;5497494;26;20005;-37
2024/04/12 01:10:14;;;;;;;7.32;5.72;;;17.50;75.60;;;;;;5487679;26;19998;-34
2024/04/12 01:12:43;;;;;;;7.15;6.07;;;17.50;75.60;;;;;;5476760;26;20515;-33
2024/04/12 01:15:09;;;;;;;6.72;5.93;;;17.50;75.60;;;;;;5462392;26;20006;-33
2024/04/12 01:17:38;;;;;;;7.00;5.88;;;17.50;75.50;;;;;;5499548;26;20319;-31
2024/04/12 01:20:07;;;;;;;7.22;5.97;;;17.50;75.60;;;;;;5487610;26;20088;-41
2024/04/12 01:22:35;;;;;;;7.30;6.00;;;17.50;75.60;;;;;;5493403;26;19994;-35
2024/04/12 01:25:03;;;;;;;6.53;5.82;;;17.50;76.40;;;;;;5489294;26;19994;-35
2024/04/12 01:27:34;;;;;;;7.18;6.13;;;17.50;75.70;;;;;;5486789;26;20009;-35
2024/04/12 01:30:01;;;;;;;7.68;6.57;;;17.50;75.70;;;;;;5481930;26;19995;-36
2024/04/12 01:32:26;;;;;;;7.25;6.47;;;17.50;75.60;;;;;;5464723;26;20034;-34
2024/04/12 01:34:53;;;;;;;7.68;6.13;;;17.50;75.60;;;;;;5467549;26;20009;-32
2024/04/12 01:37:21;;;;;;;7.20;6.07;;;17.50;75.60;;;;;;5470163;26;20013;-35
2024/04/12 01:39:52;;;;;;;7.53;6.30;;;17.50;75.70;;;;;;5463971;26;20001;-34
2024/04/12 01:42:17;;;;;;;8.35;6.68;;;17.50;75.70;;;;;;5473730;26;20007;-34
2024/04/12 01:45:13;;;;;;;7.75;6.55;;;17.40;75.60;;;;;;5467806;26;19994;-33
2024/04/12 01:47:34;;;;;;;7.63;6.70;;;17.50;75.70;;;;;;5458899;26;19991;-37
2024/04/12 01:50:07;;;;;;;7.80;6.85;;;17.50;75.70;;;;;;5467735;26;19994;-34
2024/04/12 01:52:49;;;;;;;8.63;6.97;;;17.40;75.60;;;;;;5481232;26;20095;-34
2024/04/12 01:55:19;;;;;;;8.45;7.13;;;17.40;75.60;;;;;;5469887;26;20026;-35
2024/04/12 01:57:51;;;;;;;8.20;7.00;;;17.40;75.70;;;;;;5473518;26;20034;-33
2024/04/12 02:00:20;;;;;;;8.88;7.30;;;17.40;75.70;;;;;;5485746;26;19997;-34
2024/04/12 02:02:53;;;;;;;9.10;7.88;;;17.40;75.70;;;;;;5483631;26;20009;-37
2024/04/12 02:05:28;;;;;;;8.63;7.57;;;17.40;75.70;;;;;;5486838;26;20017;-33
2024/04/12 02:07:55;;;;;;;8.35;7.43;;;17.40;75.70;;;;;;5479772;26;19994;-33
2024/04/12 02:10:22;;;;;;;9.00;7.53;;;17.40;75.70;;;;;;5468119;26;20002;-32
2024/04/12 02:12:53;;;;;;;9.02;8.00;;;17.40;75.80;;;;;;5471089;26;20048;-36
2024/04/12 02:15:25;;;;;;;9.45;7.57;;;17.40;75.70;;;;;;5482661;26;20013;-34
2024/04/12 02:17:57;;;;;;;9.07;7.70;;;17.40;75.70;;;;;;5488712;26;20026;-37
2024/04/12 02:20:36;;;;;;;8.90;8.00;;;17.40;75.70;;;;;;5469546;26;20006;-36
2024/04/12 02:23:06;;;;;;;9.32;7.80;;;17.40;75.80;;;;;;5489189;26;20005;-39
2024/04/12 02:25:39;;;;;;;8.73;7.63;;;17.40;75.80;;;;;;5464992;26;20006;-34
2024/04/12 02:28:11;;;;;;;8.98;7.85;;;17.40;75.70;;;;;;5467015;26;19995;-37
2024/04/12 02:30:45;;;;;;;9.82;8.18;;;17.40;75.70;;;;;;5466006;26;20002;-38
2024/04/12 02:33:16;;;;;;;10.10;8.23;;;17.40;75.70;;;;;;5469098;26;20010;-37
2024/04/12 02:35:43;;;;;;;9.20;8.10;;;17.40;75.70;;;;;;5459557;26;19998;-37
2024/04/12 02:38:10;;;;;;;8.73;7.70;;;17.40;75.70;;;;;;5470338;26;20006;-38
2024/04/12 02:40:41;;;;;;;9.15;7.70;;;17.40;75.70;;;;;;5481561;26;20010;-37
2024/04/12 02:43:16;;;;;;;9.73;8.25;;;17.40;75.70;;;;;;5473924;26;20011;-38
2024/04/12 02:45:48;;;;;;;10.40;8.52;;;17.40;75.70;;;;;;5476876;26;19994;-35
2024/04/12 02:48:16;;;;;;;11.13;8.98;;;17.40;75.70;;;;;;5462817;26;20005;-34
2024/04/12 02:50:43;;;;;;;9.02;8.05;;;17.40;75.70;;;;;;5462497;26;20022;-33
2024/04/12 02:53:17;;;;;;;10.55;8.68;;;17.40;75.70;;;;;;5432440;26;20003;-38
2024/04/12 02:56:00;;;;;;;9.65;8.35;;;17.40;75.70;;;;;;5457873;26;19998;-37
2024/04/12 02:58:28;;;;;;;9.18;8.05;;;17.40;75.70;;;;;;5467439;26;19998;-39
2024/04/12 03:00:54;;;;;;;9.15;8.15;;;17.40;75.70;;;;;;5476347;26;20010;-34
2024/04/12 03:03:20;;;;;;;9.60;8.23;;;17.40;75.70;;;;;;5485553;25;20354;-35
2024/04/12 03:05:48;;;;;;;10.07;8.07;;;17.40;75.70;;;;;;5455987;26;20376;-36
2024/04/12 03:08:17;;;;;;;8.68;7.57;;;17.40;75.70;;;;;;5470084;26;19994;-38
2024/04/12 03:10:45;;;;;;;9.80;8.13;;;17.40;75.70;;;;;;5475361;26;20016;-38
2024/04/12 03:13:12;;;;;;;9.65;8.63;;;17.40;75.70;;;;;;5468139;26;19998;-37
2024/04/12 03:15:40;;;;;;;9.27;7.88;;;17.40;75.70;;;;;;5461618;26;20002;-36
2024/04/12 03:18:07;;;;;;;9.43;8.00;;;17.40;75.70;;;;;;5459970;26;20007;-35
2024/04/12 03:20:35;;;;;;;9.02;7.65;;;17.30;75.70;;;;;;5462505;26;20063;-33
2024/04/12 03:23:03;;;;;;;9.75;7.38;;;17.30;75.70;;;;;;5464437;26;20009;-38
2024/04/12 03:25:31;;;;;;;8.68;7.55;;;17.40;75.70;;;;;;5458194;26;19995;-37
2024/04/12 03:27:57;;;;;;;9.40;7.57;;;17.40;75.70;;;;;;5467189;26;19998;-41
2024/04/12 03:30:24;;;;;;;9.32;8.13;;;17.30;75.60;;;;;;5472348;26;20002;-38
2024/04/12 03:32:50;;;;;;;9.18;7.93;;;17.30;75.60;;;;;;5480305;26;20026;-38
2024/04/12 03:35:20;;;;;;;9.45;8.07;;;17.30;75.60;;;;;;5481552;26;19999;-39
2024/04/12 03:40:32;;;;;;;9.00;7.95;;;17.30;75.70;;;;;;5457526;26;20005;-39
2024/04/12 03:43:05;;;;;;;8.52;7.32;;;17.30;75.60;;;;;;5462517;26;19999;-39
2024/04/12 03:45:31;;;;;;;9.40;7.93;;;17.30;75.70;;;;;;5479360;26;20078;-37
2024/04/12 03:47:58;;;;;;;8.90;7.68;;;17.30;75.70;;;;;;5470619;26;20442;-36
2024/04/12 03:50:30;;;;;;;9.80;7.82;;;17.30;75.70;;;;;;5474069;26;20006;-38
2024/04/12 03:52:57;;;;;;;8.88;7.53;;;17.30;75.70;;;;;;5461383;26;20000;-36
2024/04/12 03:55:23;;;;;;;9.05;7.65;;;17.30;75.70;;;;;;5466006;26;20140;-38
2024/04/12 03:57:51;;;;;;;8.27;6.97;;;17.30;75.70;;;;;;5478895;26;20010;-36
2024/04/12 04:00:17;;;;;;;9.52;8.13;;;17.30;75.70;;;;;;5464452;26;20366;-35
2024/04/12 04:02:48;;;;;;;8.25;7.22;;;17.30;75.70;;;;;;5474390;26;20002;-38
2024/04/12 04:05:14;;;;;;;7.97;7.13;;;17.30;75.70;;;;;;5471454;26;19995;-35
2024/04/12 04:07:46;;;;;;;8.13;7.00;;;17.30;75.70;;;;;;5497765;26;20009;-35
2024/04/12 04:10:15;;;;;;;8.52;7.53;;;17.30;75.70;;;;;;5478544;26;20010;-38
2024/04/12 04:12:49;;;;;;;9.68;7.20;;;17.30;75.70;;;;;;5486494;26;20005;-37
2024/04/12 04:15:17;;;;;;;8.38;7.07;;;17.30;75.70;;;;;;5474795;26;20053;-35
2024/04/12 04:17:49;;;;;;;7.88;6.82;;;17.30;75.70;;;;;;5471062;26;20395;-39
2024/04/12 04:20:17;;;;;;;8.68;6.88;;;17.30;75.70;;;;;;5488625;26;20001;-35
2024/04/12 04:22:49;;;;;;;8.50;7.03;;;17.30;75.70;;;;;;5476075;26;20044;-36
2024/04/12 04:25:18;;;;;;;7.95;6.90;;;17.30;75.70;;;;;;5460682;26;20005;-37
2024/04/12 04:27:45;;;;;;;8.05;6.93;;;17.30;75.70;;;;;;5462454;26;20045;-39
2024/04/12 04:30:17;;;;;;;8.68;7.20;;;17.30;75.70;;;;;;5465095;26;20002;-36
2024/04/12 04:32:44;;;;;;;7.75;6.82;;;17.30;75.70;;;;;;5469213;26;20001;-39
2024/04/12 04:35:09;;;;;;;8.25;7.18;;;17.30;75.70;;;;;;5476485;26;20018;-37
2024/04/12 04:37:39;;;;;;;8.35;7.05;;;17.30;75.70;;;;;;5460776;26;20003;-36
2024/04/12 04:40:11;;;;;;;8.15;6.50;;;17.30;75.70;;;;;;5473747;26;19994;-33
2024/04/12 04:42:38;;;;;;;7.25;6.40;;;17.30;75.70;;;;;;5474797;26;20002;-36
2024/04/12 04:45:07;;;;;;;8.02;7.10;;;17.30;75.70;;;;;;5468235;26;20003;-37
2024/04/12 04:47:39;;;;;;;8.15;6.47;;;17.20;75.60;;;;;;5473584;26;19995;-39
2024/04/12 04:50:08;;;;;;;7.88;6.68;;;17.20;75.60;;;;;;5468522;26;20026;-38
2024/04/12 04:52:37;;;;;;;7.65;6.63;;;17.20;75.70;;;;;;5457435;26;20013;-35
2024/04/12 04:55:06;;;;;;;8.32;6.80;;;17.30;75.70;;;;;;5486502;26;19994;-40
2024/04/12 04:57:43;;;;;;;8.55;6.50;;;17.20;75.70;;;;;;5473946;26;19999;-37
2024/04/12 05:00:18;;;;;;;;;;;17.30;75.80;;;;;;5458569;25;20397;-39
2024/04/12 05:02:49;;;;;;;7.03;5.68;;;17.10;75.60;;;;;;5480402;26;19960;-38
2024/04/12 05:05:22;;;;;;;8.18;6.57;;;17.20;75.70;;;;;;5482015;26;20001;-39
2024/04/12 05:07:55;;;;;;;7.07;5.97;;;17.20;75.70;;;;;;5470812;26;20002;-37
2024/04/12 05:10:21;;;;;;;7.50;6.45;;;17.20;75.80;;;;;;5469981;26;19994;-36
2024/04/12 05:12:50;;;;;;;8.25;6.82;;;17.20;75.80;;;;;;5471480;26;20017;-35
2024/04/12 05:18:03;;;;;;;8.52;6.80;;;17.20;75.80;;;;;;5467201;26;19999;-37
2024/04/12 05:20:42;;;;;;;7.63;6.47;;;17.20;75.80;;;;;;5466843;26;20002;-36
2024/04/12 05:23:11;;;;;;;6.88;5.97;;;17.20;75.90;;;;;;5484555;26;20009;-39
2024/04/12 05:25:41;;;;;;;7.75;6.18;;;17.20;75.90;;;;;;5476726;26;19999;-38
2024/04/12 05:28:07;;;;;;;8.85;7.45;;;17.20;75.90;;;;;;5481528;26;19994;-37
2024/04/12 05:30:37;;;;;;;7.53;6.28;;;17.10;75.80;;;;;;5466243;26;20075;-37
2024/04/12 05:33:06;;;;;;;7.03;6.20;;;17.20;75.90;;;;;;5464109;26;19994;-36
2024/04/12 05:35:34;;;;;;;7.20;5.88;;;17.10;75.90;;;;;;5458147;26;19998;-39
2024/04/12 05:38:09;;;;;;;7.72;6.30;;;17.10;76.00;;;;;;5460474;26;19995;-36
2024/04/12 05:40:51;;;;;;;8.02;6.22;;;17.10;76.10;;;;;;5458606;26;19999;-38
2024/04/12 05:43:17;;;;;;;7.40;5.72;;;17.10;76.00;;;;;;5466902;26;20439;-36
2024/04/12 05:45:47;;;;;;;7.22;5.85;;;17.10;76.00;;;;;;5474849;26;20009;-36
2024/04/12 05:48:13;;;;;;;6.80;6.00;;;17.10;76.00;;;;;;5463630;26;20014;-38
2024/04/12 05:50:50;;;;;;;7.30;6.20;;;17.10;76.00;;;;;;5480276;26;20023;-39
2024/04/12 05:53:23;;;;;;;7.20;6.35;;;17.20;76.10;;;;;;5462238;26;20013;-38
2024/04/12 05:56:25;;;;;;;7.60;5.93;;;17.20;76.10;;;;;;5458819;26;20003;-37
2024/04/12 05:58:41;;;;;;;7.30;5.47;;;17.10;76.00;;;;;;5490438;26;20072;-41
2024/04/12 06:01:08;;;;;;;6.93;6.00;;;17.20;76.00;;;;;;5480772;26;20006;-35
2024/04/12 06:03:42;;;;;;;6.65;5.55;;;17.20;76.00;;;;;;5480360;26;20465;-35
2024/04/12 06:06:09;;;;;;;7.25;5.72;;;17.20;76.00;;;;;;5480324;26;20006;-39
2024/04/12 06:08:37;;;;;;;6.78;5.75;;;17.20;76.00;;;;;;5458256;26;19995;-34
2024/04/12 06:11:08;;;;;;;6.82;5.80;;;17.20;76.00;;;;;;5471069;26;19998;-40
2024/04/12 06:13:41;;;;;;;7.03;5.70;;;17.20;76.00;;;;;;5457885;26;19999;-37
2024/04/12 06:16:07;;;;;;;7.72;5.90;;;17.20;75.90;;;;;;5471873;26;20009;-33
2024/04/12 06:18:33;;;;;;;6.93;5.60;;;17.20;75.90;;;;;;5473078;26;20009;-36
2024/04/12 06:21:01;;;;;;;7.30;5.78;;;17.20;76.00;;;;;;5490249;26;19998;-39
2024/04/12 06:23:29;;;;;;;6.97;5.78;;;17.20;76.00;;;;;;5491516;26;19998;-36
2024/04/12 06:25:58;;;;;;;7.43;5.95;;;17.20;76.00;;;;;;5461475;26;20005;-39
2024/04/12 06:28:24;;;;;;;7.15;5.75;;;17.20;76.00;;;;;;5462976;26;20007;-35
2024/04/12 06:30:59;;;;;;;7.82;5.90;;;17.30;76.00;;;;;;5469174;26;20020;-39
2024/04/12 06:33:25;;;;;;;6.80;5.68;;;17.30;76.00;;;;;;5493737;26;20012;-38
2024/04/12 06:36:04;;;;;;;7.28;5.35;;;17.30;75.90;;;;;;5476060;26;20002;-38
2024/04/12 06:38:33;;;;;;;6.85;5.63;;;17.30;75.90;;;;;;5490157;26;20016;-38
2024/04/12 06:41:00;;;;;;;6.32;5.30;;;17.30;75.90;;;;;;5475232;26;20007;-40
2024/04/12 06:43:26;;;;;;;6.65;5.72;;;17.30;75.90;;;;;;5476861;26;20006;-34
2024/04/12 06:46:14;;;;;;;7.97;5.65;;;17.30;75.90;;;;;;5467953;26;20002;-36
2024/04/12 06:48:40;;;;;;;7.28;5.88;;;17.40;76.00;;;;;;5457530;26;19998;-33
2024/04/12 06:51:11;;;;;;;7.15;6.05;;;17.30;75.90;;;;;;5469596;26;19998;-39
2024/04/12 06:53:44;;;;;;;7.10;5.95;;;17.40;75.90;;;;;;5489234;26;20039;-36
2024/04/12 06:56:20;;;;;;;7.15;6.10;;;17.40;75.90;;;;;;5478527;26;20026;-37
2024/04/12 06:58:46;;;;;;;6.82;5.72;;;17.40;76.00;;;;;;5492825;26;19998;-38
2024/04/12 07:01:12;;;;;;;7.63;5.40;;;17.40;76.00;;;;;;5486042;26;20042;-39
2024/04/12 07:03:40;;;;;;;7.00;5.78;;;17.40;76.00;;;;;;5467066;26;19999;-34
2024/04/12 07:06:07;;;;;;;7.43;5.85;;;17.40;76.00;;;;;;5460493;26;19999;-40
2024/04/12 07:08:37;;;;;;;8.57;5.80;;;17.40;76.00;;;;;;5469393;26;20051;-39
2024/04/12 07:11:07;;;;;;;9.00;6.45;;;17.40;76.00;;;;;;5474879;26;20040;-40
2024/04/12 07:13:33;;;;;;;7.50;6.10;;;17.40;75.90;;;;;;5457049;26;20003;-41
2024/04/12 07:16:02;;;;;;;7.78;6.15;;;17.40;76.00;;;;;;5471039;26;19998;-40
2024/04/12 07:18:29;;;;;;;8.23;6.45;;;17.50;76.00;;;;;;5467392;26;20022;-41
2024/04/12 07:23:46;;;;;;;7.70;6.25;;;17.50;76.00;;;;;;5459098;26;20081;-39
2024/04/12 07:26:26;;;;;;;7.82;6.45;;;17.50;76.00;;;;;;5481921;26;20093;-40
2024/04/12 07:29:01;;;;;;;9.40;6.38;;;17.50;76.00;;;;;;5492368;26;20030;-40
2024/04/12 07:31:34;;;;;;;7.60;6.05;;;17.50;76.00;;;;;;5461467;26;20009;-41
2024/04/12 07:34:01;;;;;;;8.48;6.85;;;17.50;76.00;;;;;;5466857;26;20077;-41
2024/04/12 07:36:31;;;;;;;8.00;6.13;;;17.50;76.00;;;;;;5479936;26;20017;-41
2024/04/12 07:39:03;;;;;;;7.90;6.43;;;17.50;76.00;;;;;;5478018;26;20519;-41
2024/04/12 07:41:42;;;;;;;7.50;5.93;;;17.50;76.00;;;;;;5474912;26;20019;-40
2024/04/12 07:44:12;;;;;;;8.20;5.95;;;17.60;76.10;;;;;;5477074;26;20029;-40
2024/04/12 07:46:45;;;;;;;8.13;6.60;;;17.60;76.00;;;;;;5462184;26;20411;-41
2024/04/12 07:49:13;;;;;;;8.88;6.40;;;17.60;76.10;;;;;;5485193;26;20017;-41
2024/04/12 07:51:39;;;;;;;8.10;6.32;;;17.60;76.10;;;;;;5471023;26;20032;-39
2024/04/12 07:54:06;;;;;;;7.35;6.20;;;17.60;76.00;;;;;;5466339;26;20011;-42
2024/04/12 07:56:38;;;;;;;7.50;6.07;;;17.70;76.10;;;;;;5484233;26;20055;-39
2024/04/12 07:59:24;;;;;;;8.25;6.30;;;17.70;76.10;;;;;;5489883;26;20008;-39
2024/04/12 08:01:51;;;;;;;7.75;6.40;;;17.70;76.10;;;;;;5479360;26;20002;-41
2024/04/12 08:04:25;;;;;;;8.40;6.13;;;17.70;76.10;;;;;;5474594;26;20049;-40
2024/04/12 08:06:57;;;;;;;8.68;6.68;;;17.70;76.10;;;;;;5475787;26;20002;-41
2024/04/12 08:09:44;;;;;;;8.10;5.93;;;17.80;76.10;;;;;;5479174;26;20009;-39
2024/04/12 08:12:49;;;;;;;8.23;6.55;;;17.80;76.00;;;;;;5474898;26;20044;-39
2024/04/12 08:15:14;;;;;;;7.97;6.10;;;17.80;76.00;;;;;;5463313;26;20039;-39
2024/04/12 08:17:40;;;;;;;7.22;5.78;;;17.80;76.00;;;;;;5476546;26;20018;-40
2024/04/12 08:20:13;;;;;;;8.48;6.68;;;17.80;76.00;;;;;;5484971;26;19999;-41
2024/04/12 08:22:42;;;;;;;8.45;6.45;;;17.80;76.10;;;;;;5470386;26;19998;-41
2024/04/12 08:25:09;;;;;;;8.07;6.10;;;17.90;76.10;;;;;;5483839;26;20330;-40
2024/04/12 08:27:36;;;;;;;7.63;6.43;;;17.90;76.00;;;;;;5465511;26;20003;-37
2024/04/12 08:30:13;;;;;;;7.53;5.97;;;17.90;76.00;;;;;;5474615;26;20013;-34
2024/04/12 08:32:42;;;;;;;7.20;5.85;;;17.90;76.70;;;;;;5486731;26;19999;-38
2024/04/12 08:35:19;;;;;;;7.10;5.60;;;17.90;76.00;;;;;;5460511;26;20014;-39
2024/04/12 08:37:47;;;;;;;8.00;6.60;;;18.00;76.00;;;;;;5464205;26;20002;-36
2024/04/12 08:40:13;;;;;;;8.60;6.95;;;18.00;76.00;;;;;;5471276;26;19999;-33
2024/04/12 08:42:39;;;;;;;9.70;6.80;;;18.10;76.10;;;;;;5476085;26;20051;-35
2024/04/12 08:45:12;;;;;;;7.80;6.32;;;18.10;76.00;;;;;;5480873;26;20027;-35
2024/04/12 08:48:05;;;;;;;8.90;5.72;;;18.10;76.00;;;;;;5482711;26;19998;-34
2024/04/12 08:50:31;;;;;;;7.28;5.38;;;18.10;76.00;;;;;;5469346;26;20053;-35
2024/04/12 08:52:58;;;;;;;8.13;6.20;;;18.10;75.90;;;;;;5458532;26;20076;-34
2024/04/12 08:55:25;;;;;;;7.60;5.95;;;18.20;76.60;;;;;;5473048;26;20042;-41
2024/04/12 08:58:00;;;;;;;8.85;6.53;;;18.20;76.00;;;;;;5493182;26;19995;-38
2024/04/12 09:00:31;;;;;;;8.00;6.03;;;18.20;76.00;;;;;;5486534;26;20454;-37
2024/04/12 09:03:02;;;;;;;7.28;5.35;;;18.30;75.90;;;;;;5495428;26;20077;-34
2024/04/12 09:05:29;;;;;;;8.35;6.28;;;18.30;75.90;;;;;;5459985;26;20088;-34
2024/04/12 09:07:58;;;;;;;7.53;5.90;;;18.30;75.80;;;;;;5480006;26;20005;-32
2024/04/12 09:10:34;;;;;;;8.48;6.03;;;18.40;75.80;;;;;;5468757;26;19998;-35
2024/04/12 09:13:07;;;;;;;7.75;5.80;;;18.40;75.80;;;;;;5491681;26;19994;-36
2024/04/12 09:15:42;;;;;;;7.15;5.80;;;18.40;75.80;;;;;;5480037;26;20043;-35
2024/04/12 09:18:14;;;;;;;7.32;6.05;;;18.40;75.80;;;;;;5458482;26;20013;-33
2024/04/12 09:20:40;;;;;;;8.70;6.47;;;18.50;75.70;;;;;;5462411;26;20006;-35
2024/04/12 09:23:14;;;;;;;7.05;5.40;;;18.50;75.60;;;;;;5484240;26;20013;-33
2024/04/12 09:25:58;;;;;;;8.65;6.32;;;18.50;75.60;;;;;;5481744;26;20069;-33
2024/04/12 09:28:30;;;;;;;;;;;18.60;75.60;;;;;;5481910;26;20009;-36
2024/04/12 09:33:56;;;;;;;6.97;5.32;;;18.60;75.40;;;;;;5478514;26;19994;-34
2024/04/12 09:36:50;;;;;;;6.97;5.45;;;18.70;75.60;;;;;;5486127;26;20009;-36
2024/04/12 09:39:16;;;;;;;7.20;5.35;;;18.70;75.50;;;;;;5478302;26;19994;-36
2024/04/12 09:41:56;;;;;;;7.35;5.78;;;18.80;75.50;;;;;;5462312;26;20026;-32
2024/04/12 09:44:38;;;;;;;6.78;5.45;;;18.80;75.50;;;;;;5483773;26;20009;-36
2024/04/12 10:37:28;;;;;;;6.93;5.10;;;19.70;75.00;;;;;;5486853;26;19994;-35
2024/04/12 10:39:55;;;;;;;6.68;4.75;;;19.70;74.90;;;;;;5478850;26;20378;-36
2024/04/12 10:42:30;;;;;;;7.60;5.00;;;19.80;75.10;;;;;;5478653;26;20528;-33
2024/04/12 10:44:59;;;;;;;6.63;4.68;;;19.80;74.90;;;;;;5475001;26;20366;-31
2024/04/12 10:47:28;;;;;;;7.68;5.32;;;19.90;74.90;;;;;;5455640;26;20010;-36
2024/04/12 10:49:56;;;;;;;6.97;5.20;;;19.90;74.90;;;;;;5480570;26;19998;-35
2024/04/12 10:52:29;;;;;;;7.28;5.30;;;20.00;74.90;;;;;;5470207;26;20036;-32
2024/04/12 10:54:59;;;;;;;8.43;5.00;;;20.00;74.80;;;;;;5460444;26;19999;-35
2024/04/12 10:57:27;;;;;;;7.05;5.05;;;20.10;74.80;;;;;;5463730;26;20029;-33
2024/04/12 10:59:54;;;;;;;6.93;4.90;;;20.10;74.80;;;;;;5476921;26;19999;-34
2024/04/12 11:02:19;;;;;;;6.38;5.13;;;20.20;74.80;;;;;;5473258;26;20059;-33
2024/04/12 11:07:30;;;;;;;6.57;4.75;;;20.30;74.80;;;;;;5472369;26;19994;-34
2024/04/12 11:10:02;;;;;;;6.22;4.68;;;20.30;74.60;;;;;;5486909;26;20017;-35
2024/04/12 11:12:29;;;;;;;6.88;5.18;;;20.40;74.60;;;;;;5472383;26;19994;-34
2024/04/12 11:31:55;;;;;;;5.63;4.63;;;20.80;74.30;;;;;;5481911;26;20001;-35
2024/04/12 11:34:24;;;;;;;6.38;4.60;;;20.80;74.20;;;;;;5467392;26;20012;-32
2024/04/12 11:36:55;;;;;;;6.20;4.93;;;20.90;74.10;;;;;;5492857;26;19998;-34
2024/04/12 11:39:25;;;;;;;6.47;5.00;;;21.00;74.10;;;;;;5467542;26;20006;-34
2024/04/12 11:42:00;;;;;;;6.05;4.68;;;21.00;74.10;;;;;;5475476;26;20021;-35
2024/04/12 11:44:26;;;;;;;6.78;4.75;;;21.10;74.00;;;;;;5462137;26;19998;-36
2024/04/12 11:46:56;;;;;;;6.43;4.55;;;21.10;73.90;;;;;;5493983;26;20010;-35
2024/04/12 11:49:27;;;;;;;6.75;4.88;;;21.20;73.90;;;;;;5472863;26;20019;-35
2024/04/12 11:51:57;;;;;;;5.93;4.60;;;21.30;73.90;;;;;;5470044;26;20042;-35
2024/04/12 11:54:30;;;;;;;5.80;4.32;;;21.40;73.80;;;;;;5466732;26;19998;-36
2024/04/12 11:56:59;;;;;;;6.93;4.43;;;21.40;73.80;;;;;;5479500;26;20031;-35
2024/04/12 11:59:29;;;;;;;5.38;4.00;;;21.40;73.60;;;;;;5479100;26;20466;-35
2024/04/12 12:02:05;;;;;;;5.07;3.92;;;21.50;73.60;;;;;;5457775;26;20286;-33
2024/04/12 12:04:32;;;;;;;5.90;3.97;;;21.50;73.60;;;;;;5482358;26;20006;-30
2024/04/12 12:07:02;;;;;;;6.10;4.10;;;21.60;73.60;;;;;;5469386;26;19998;-34
2024/04/12 12:09:36;;;;;;;5.32;4.00;;;21.70;73.50;;;;;;5468865;26;20477;-36
2024/04/12 12:12:16;;;;;;;5.43;3.88;;;21.70;73.50;;;;;;5458545;26;20009;-35
2024/04/12 12:14:42;;;;;;;5.15;3.80;;;21.70;73.40;;;;;;5460857;26;20442;-34
2024/04/12 12:17:09;;;;;;;5.38;3.67;;;21.80;73.40;;;;;;5487663;26;20011;-31
2024/04/12 12:19:36;;;;;;;5.32;3.65;;;21.80;73.30;;;;;;5474742;26;19998;-35
2024/04/12 12:22:02;;;;;;;6.32;4.00;;;21.90;73.30;;;;;;5468827;26;20002;-37
2024/04/12 12:24:29;;;;;;;4.72;3.60;;;21.90;73.20;;;;;;5490295;26;20030;-33
2024/04/12 12:26:55;;;;;;;7.05;3.83;;;22.00;73.20;;;;;;5468546;26;19994;-33
2024/04/12 12:29:21;;;;;;;5.20;4.05;;;22.00;73.10;;;;;;5468182;26;19998;-33
2024/04/12 12:31:48;;;;;;;5.30;3.30;;;22.10;73.10;;;;;;5484896;26;19998;-34
2024/04/12 12:34:14;;;;;;;5.70;3.78;;;22.10;73.10;;;;;;5460942;26;19991;-34
2024/04/12 12:36:44;;;;;;;5.45;3.85;;;22.10;73.10;;;;;;5460620;26;19998;-36
2024/04/12 12:39:10;;;;;;;5.00;3.72;;;22.20;73.00;;;;;;5470340;26;20503;-33
2024/04/12 12:41:36;;;;;;;4.95;3.45;;;22.20;73.00;;;;;;5479506;26;19994;-33
2024/04/12 12:44:06;;;;;;;4.85;3.90;;;22.20;72.90;;;;;;5460502;26;20003;-33
2024/04/12 12:46:32;;;;;;;5.18;3.60;;;22.30;73.00;;;;;;5465500;26;20505;-37
2024/04/12 12:48:58;;;;;;;6.15;3.95;;;22.30;72.90;;;;;;5465006;26;19998;-34
2024/04/12 12:51:26;;;;;;;5.43;3.55;;;22.40;73.00;;;;;;5488115;26;20002;-33
2024/04/12 12:53:53;;;;;;;4.90;3.60;;;22.40;72.90;;;;;;5476102;26;20050;-34
2024/04/12 12:56:20;;;;;;;5.55;3.40;;;22.50;72.90;;;;;;5486257;26;20009;-36
2024/04/12 12:58:47;;;;;;;4.15;3.30;;;22.50;72.80;;;;;;5462829;26;19995;-33
2024/04/12 13:01:16;;;;;;;4.15;3.40;;;22.50;72.70;;;;;;5483020;26;20006;-32
2024/04/12 13:03:43;;;;;;;5.07;3.08;;;22.60;72.80;;;;;;5479843;26;20037;-36
2024/04/12 13:06:21;;;;;;;5.90;3.50;;;22.60;72.80;;;;;;5474692;26;20338;-31
2024/04/12 13:08:48;;;;;;;5.50;3.15;;;22.70;72.80;;;;;;5466016;26;20039;-33
2024/04/12 13:11:24;;;;;;;4.88;3.30;;;22.70;72.70;;;;;;5472318;26;20013;-34
2024/04/12 13:13:51;;;;;;;5.28;3.03;;;22.70;72.60;;;;;;5458548;26;20014;-32
2024/04/12 13:16:17;;;;;;;5.40;3.42;;;22.80;72.60;;;;;;5461137;26;20014;-37
2024/04/12 13:18:45;;;;;;;4.10;2.95;;;22.80;72.70;;;;;;5469152;26;20101;-33
2024/04/12 13:21:14;;;;;;;4.78;3.20;;;22.80;72.60;;;;;;5493005;26;20006;-34
2024/04/12 13:23:42;;;;;;;4.97;3.22;;;22.90;72.60;;;;;;5470390;26;20021;-35
2024/04/12 13:26:08;;;;;;;4.90;3.28;;;22.90;72.60;;;;;;5494566;26;20393;-34
2024/04/12 13:28:35;;;;;;;3.67;2.50;;;22.90;72.60;;;;;;5456596;26;20010;-36
2024/04/12 13:31:02;;;;;;;3.50;2.75;;;23.00;73.30;;;;;;5473422;26;19995;-37
2024/04/12 13:33:28;;;;;;;5.60;3.15;;;22.90;72.60;;;;;;5460951;26;20060;-34
2024/04/12 13:35:54;;;;;;;4.78;3.13;;;23.00;72.60;;;;;;5461643;26;20002;-33
2024/04/12 13:38:20;;;;;;;4.55;2.72;;;23.00;72.60;;;;;;5462189;26;20131;-31
2024/04/12 13:40:49;;;;;;;5.95;3.30;;;23.00;72.50;;;;;;5463375;26;20013;-34
2024/04/12 13:43:16;;;;;;;4.18;2.97;;;23.10;72.50;;;;;;5457047;26;19999;-36
2024/04/12 13:51:21;;;;;;;3.58;2.78;;;23.10;72.70;;;;;;5481172;26;19999;-32
2024/04/12 13:53:50;;;;;;;4.40;2.53;;;23.10;72.70;;;;;;5458673;26;19999;-32
2024/04/12 13:56:20;;;;;;;4.18;2.65;;;23.20;72.80;;;;;;5482949;26;20503;-33
2024/04/12 13:58:59;;;;;;;3.53;2.50;;;23.20;73.00;;;;;;5478432;26;20044;-35
2024/04/12 14:01:29;;;;;;;3.90;2.70;;;23.20;73.00;;;;;;5466700;26;20437;-33
2024/04/12 14:04:04;;;;;;;3.67;2.60;;;23.20;72.80;;;;;;5490720;26;19998;-33
2024/04/12 14:06:34;;;;;;;4.22;2.70;;;23.30;72.80;;;;;;5466355;26;20014;-35
2024/04/12 14:09:12;;;;;;;4.47;2.97;;;23.30;72.90;;;;;;5464614;26;20319;-37
2024/04/12 14:11:39;;;;;;;3.70;2.70;;;23.30;73.00;;;;;;5486232;26;19998;-34
2024/04/12 14:14:05;;;;;;;4.10;2.75;;;23.40;73.10;;;;;;5437005;26;19998;-32
2024/04/12 14:16:32;;;;;;;3.65;2.78;;;23.40;72.90;;;;;;5479396;26;20017;-36
2024/04/12 14:19:01;;;;;;;4.57;2.67;;;23.40;72.80;;;;;;5473306;26;20026;-34
2024/04/12 14:21:27;;;;;;;3.72;2.70;;;23.40;72.80;;;;;;5477451;26;20027;-33
2024/04/12 14:24:00;;;;;;;4.10;2.92;;;23.50;72.80;;;;;;5485636;26;19999;-36
2024/04/12 14:26:26;;;;;;;4.53;3.08;;;23.50;72.90;;;;;;5457259;26;20034;-35
2024/04/12 14:28:52;;;;;;;4.57;2.88;;;23.60;73.20;;;;;;5468492;26;19998;-34
2024/04/12 14:31:26;;;;;;;4.30;3.10;;;23.60;73.60;;;;;;5473937;26;20008;-33